Time,TemperatureF,DewpointF,PressureIn,WindDirection,WindDirectionDegrees,WindSpeedMPH,WindSpeedGustMPH,Humidity,HourlyPrecipIn,Conditions,Clouds,dailyrainin,SoftwareType,DateUTC
2013-04-25 00:00:00,64.4,55.2,30.03,SW,219,1.0,2.0,72,0.00,CLR,,0.00,WeatherDisplay:10.37,2013-04-25 04:00:00,
2013-04-25 00:30:00,64.0,55.2,30.04,SW,236,1.0,4.0,73,0.00,CLR,,0.00,WeatherDisplay:10.37,2013-04-25 04:30:00,
2013-04-25 01:00:00,63.5,55.1,30.05,WSW,250,1.0,5.0,74,0.00,CLR,,0.00,WeatherDisplay:10.37,2013-04-25 05:00:00,
2013-04-25 01:30:00,63.1,55.4,30.05,West,273,1.0,5.0,76,0.00,OVC,,0.00,WeatherDisplay:10.37,2013-04-25 05:30:00,
2013-04-25 02:00:00,63.3,55.6,30.06,WNW,283,2.0,5.0,76,0.00,OVC,,0.00,WeatherDisplay:10.37,2013-04-25 06:00:00,
2013-04-25 02:30:00,61.5,50.9,30.07,WNW,290,2.0,8.0,68,0.00,OVC,,0.00,WeatherDisplay:10.37,2013-04-25 06:30:00,
2013-04-25 03:00:00,60.6,49.6,30.07,WNW,290,2.0,7.0,67,0.00,OVC,,0.00,WeatherDisplay:10.37,2013-04-25 07:00:00,
2013-04-25 03:30:00,58.9,47.9,30.09,WNW,291,3.0,5.0,67,0.00,OVC,,0.00,WeatherDisplay:10.37,2013-04-25 07:30:00,
2013-04-25 04:00:00,56.8,45.6,30.10,WNW,292,3.0,9.0,66,0.00,OVC,,0.00,WeatherDisplay:10.37,2013-04-25 08:00:00,
2013-04-25 04:30:00,55.8,44.6,30.12,West,281,3.0,9.0,66,0.00,BKN,,0.00,WeatherDisplay:10.37,2013-04-25 08:30:00,
2013-04-25 05:00:00,54.5,42.6,30.13,West,280,6.0,10.0,64,0.00,BKN,,0.00,WeatherDisplay:10.37,2013-04-25 09:00:00,
2013-04-25 05:30:00,53.0,41.1,30.15,WNW,295,5.0,7.0,64,0.00,OVC,,0.00,WeatherDisplay:10.37,2013-04-25 09:30:00,
2013-04-25 06:00:00,51.6,39.0,30.16,WNW,283,1.0,8.0,62,0.00,OVC,,0.00,WeatherDisplay:10.37,2013-04-25 10:00:00,
2013-04-25 06:30:00,50.5,38.0,30.19,WNW,287,1.0,8.0,62,0.00,OVC,,0.00,WeatherDisplay:10.37,2013-04-25 10:30:00,
2013-04-25 07:00:00,50.0,37.1,30.21,WNW,292,2.0,7.0,61,0.00,OVC,,0.00,WeatherDisplay:10.37,2013-04-25 11:00:00,
2013-04-25 07:30:00,49.6,37.1,30.23,NW,305,3.0,5.0,62,0.00,SCT,,0.00,WeatherDisplay:10.37,2013-04-25 11:30:00,
2013-04-25 08:00:00,50.0,37.9,30.23,WNW,290,2.0,7.0,63,0.00,SCT,,0.00,WeatherDisplay:10.37,2013-04-25 12:00:00,
2013-04-25 08:30:00,50.0,37.1,30.24,WNW,297,3.0,8.0,61,0.00,CLR,,0.00,WeatherDisplay:10.37,2013-04-25 12:30:00,
2013-04-25 09:00:00,50.7,36.9,30.25,WNW,290,2.0,5.0,59,0.00,CLR,,0.00,WeatherDisplay:10.37,2013-04-25 13:00:00,
2013-04-25 09:30:00,53.4,37.6,30.25,NW,309,2.0,7.0,55,0.00,CLR,,0.00,WeatherDisplay:10.37,2013-04-25 13:30:00,
2013-04-25 10:00:00,55.9,38.6,30.25,NW,307,1.0,5.0,52,0.00,CLR,,0.00,WeatherDisplay:10.37,2013-04-25 14:00:00,
2013-04-25 10:30:00,58.1,39.6,30.25,NW,310,2.0,5.0,50,0.00,CLR,,0.00,WeatherDisplay:10.37,2013-04-25 14:30:00,
2013-04-25 11:00:00,59.9,41.2,30.25,WNW,290,1.0,5.0,50,0.00,CLR,,0.00,WeatherDisplay:10.37,2013-04-25 15:00:00,
2013-04-25 11:30:00,62.4,40.2,30.25,East,80,1.0,5.0,44,0.00,CLR,,0.00,WeatherDisplay:10.37,2013-04-25 15:30:00,
2013-04-25 12:00:00,63.6,40.7,30.25,WNW,286,1.0,5.0,43,0.00,CLR,,0.00,WeatherDisplay:10.37,2013-04-25 16:00:00,
2013-04-25 12:30:00,65.5,42.4,30.25,WNW,296,2.0,6.0,43,0.00,CLR,,0.00,WeatherDisplay:10.37,2013-04-25 16:30:00,
2013-04-25 13:00:00,67.3,43.4,30.25,West,277,2.0,6.0,42,0.00,CLR,,0.00,WeatherDisplay:10.37,2013-04-25 17:00:00,
2013-04-25 13:30:00,67.7,43.1,30.25,WNW,286,2.0,5.0,41,0.00,CLR,,0.00,WeatherDisplay:10.37,2013-04-25 17:30:00,
2013-04-25 14:00:00,68.3,44.3,30.24,North,350,2.0,6.0,42,0.00,CLR,,0.00,WeatherDisplay:10.37,2013-04-25 18:00:00,
2013-04-25 14:30:00,69.0,43.0,30.24,NE,37,1.0,5.0,39,0.00,CLR,,0.00,WeatherDisplay:10.37,2013-04-25 18:30:00,
2013-04-25 15:00:00,70.2,45.4,30.23,East,94,5.0,5.0,41,0.00,CLR,,0.00,WeatherDisplay:10.37,2013-04-25 19:00:00,
2013-04-25 15:30:00,69.9,44.5,30.22,SE,134,0.0,5.0,40,0.00,CLR,,0.00,WeatherDisplay:10.37,2013-04-25 19:30:00,
2013-04-25 16:00:00,68.9,40.8,30.21,WNW,298,1.0,5.0,36,0.00,CLR,,0.00,WeatherDisplay:10.37,2013-04-25 20:00:00,
2013-04-25 16:30:00,68.5,41.2,30.21,SSW,207,1.0,5.0,37,0.00,CLR,,0.00,WeatherDisplay:10.37,2013-04-25 20:30:00,
2013-04-25 17:00:00,67.8,37.6,30.20,WNW,288,1.0,5.0,33,0.00,CLR,,0.00,WeatherDisplay:10.37,2013-04-25 21:00:00,
2013-04-25 17:30:00,67.3,36.4,30.20,WNW,290,1.0,4.0,32,0.00,CLR,,0.00,WeatherDisplay:10.37,2013-04-25 21:30:00,
2013-04-25 18:00:00,66.9,37.6,30.20,NE,48,1.0,3.0,34,0.00,CLR,,0.00,WeatherDisplay:10.37,2013-04-25 22:00:00,
2013-04-25 18:30:00,66.6,37.3,30.20,NE,44,1.0,2.0,34,0.00,CLR,,0.00,WeatherDisplay:10.37,2013-04-25 22:30:00,
2013-04-25 19:00:00,66.0,38.3,30.20,NNW,348,1.0,1.0,36,0.00,CLR,,0.00,WeatherDisplay:10.37,2013-04-25 23:00:00,
2013-04-25 19:30:00,65.0,40.7,30.21,ESE,112,0.0,2.0,41,0.00,CLR,,0.00,WeatherDisplay:10.37,2013-04-25 23:30:00,
2013-04-25 20:00:00,63.3,42.2,30.22,ESE,112,0.0,1.0,46,0.00,CLR,,0.00,WeatherDisplay:10.37,2013-04-26 00:00:00,
2013-04-25 20:30:00,61.2,41.4,30.23,ESE,112,0.0,0.0,48,0.00,CLR,,0.00,WeatherDisplay:10.37,2013-04-26 00:30:00,
2013-04-25 21:00:00,59.2,40.6,30.24,ESE,112,0.0,0.0,50,0.00,CLR,,0.00,WeatherDisplay:10.37,2013-04-26 01:00:00,
2013-04-25 21:30:00,57.3,39.8,30.25,ESE,112,0.0,0.0,52,0.00,CLR,,0.00,WeatherDisplay:10.37,2013-04-26 01:30:00,
2013-04-25 22:00:00,56.1,39.2,30.27,ESE,112,0.0,0.0,53,0.00,CLR,,0.00,WeatherDisplay:10.37,2013-04-26 02:00:00,
2013-04-25 22:30:00,54.7,38.8,30.27,ESE,112,0.0,0.0,55,0.00,CLR,,0.00,WeatherDisplay:10.37,2013-04-26 02:30:00,
2013-04-25 23:00:00,53.6,38.7,30.27,ESE,112,0.0,0.0,57,0.00,CLR,,0.00,WeatherDisplay:10.37,2013-04-26 03:00:00,
2013-04-25 23:30:00,52.3,38.0,30.28,WNW,291,0.0,4.0,58,0.00,CLR,,0.00,WeatherDisplay:10.37,2013-04-26 03:30:00,